createdAt,value
2022-09-15T00:01:56.885Z,18.69
2022-09-15T00:04:31.520Z,18.66
2022-09-15T00:07:06.581Z,18.70
2022-09-15T00:09:39.908Z,18.71
2022-09-15T00:12:17.670Z,18.67
2022-09-15T00:14:56.146Z,18.63
2022-09-15T00:17:32.612Z,18.67
2022-09-15T00:20:07.495Z,18.74
2022-09-15T00:22:41.105Z,18.71
2022-09-15T00:25:15.273Z,18.73
2022-09-15T00:27:48.507Z,18.68
2022-09-15T00:30:21.485Z,18.74
2022-09-15T00:32:55.233Z,18.74
2022-09-15T00:35:28.759Z,18.74
2022-09-15T00:38:02.360Z,18.73
2022-09-15T00:40:36.194Z,18.66
2022-09-15T00:43:13.076Z,18.69
2022-09-15T00:45:54.382Z,18.64
2022-09-15T00:48:28.329Z,18.58
2022-09-15T00:51:10.203Z,18.50
2022-09-15T00:53:51.556Z,18.43
2022-09-15T00:56:28.284Z,18.35
2022-09-15T00:59:16.856Z,18.32
2022-09-15T01:02:15.130Z,18.19
2022-09-15T01:04:49.193Z,18.11
2022-09-15T01:07:28.604Z,18.05
2022-09-15T01:10:06.746Z,17.99
2022-09-15T01:12:43.269Z,17.92
2022-09-15T01:15:17.730Z,17.86
2022-09-15T01:18:17.346Z,17.82
2022-09-15T01:21:10.762Z,17.64
2022-09-15T01:24:05.741Z,17.69
2022-09-15T01:26:56.351Z,17.59
2022-09-15T01:29:42.980Z,17.53
2022-09-15T01:32:43.432Z,17.52
2022-09-15T01:35:43.870Z,17.46
2022-09-15T01:38:41.254Z,17.37
2022-09-15T01:41:44.459Z,17.34
2022-09-15T01:44:31.414Z,17.36
2022-09-15T01:47:10.701Z,17.27
2022-09-15T01:49:55.533Z,17.29
2022-09-15T01:52:29.995Z,17.25
2022-09-15T01:55:10.154Z,17.17
2022-09-15T01:57:46.271Z,17.16
2022-09-15T02:00:23.132Z,17.09
2022-09-15T02:03:05.721Z,17.08
2022-09-15T02:05:50.873Z,17.05
2022-09-15T02:08:43.570Z,17.00
2022-09-15T02:11:30.412Z,17.01
2022-09-15T02:14:18.308Z,16.93
2022-09-15T02:17:02.152Z,16.97
2022-09-15T02:19:49.594Z,16.96
2022-09-15T02:22:28.922Z,17.07
2022-09-15T02:25:15.262Z,17.09
2022-09-15T02:27:53.321Z,17.15
2022-09-15T02:30:28.455Z,17.13
2022-09-15T02:33:08.929Z,17.10
2022-09-15T02:35:44.990Z,17.07
2022-09-15T02:38:18.557Z,17.04
2022-09-15T02:40:51.915Z,17.00
2022-09-15T02:43:25.272Z,16.96
2022-09-15T02:45:58.707Z,16.92
2022-09-15T02:48:42.253Z,16.88
2022-09-15T02:51:15.779Z,16.84
2022-09-15T02:53:49.075Z,16.79
2022-09-15T02:56:22.771Z,16.77
2022-09-15T02:58:56.122Z,16.68
2022-09-15T03:01:40.149Z,16.71
2022-09-15T03:04:14.364Z,16.70
2022-09-15T03:06:47.551Z,16.70
2022-09-15T03:09:20.451Z,16.65
2022-09-15T03:11:54.061Z,16.72
2022-09-15T03:14:28.210Z,16.75
2022-09-15T03:17:05.144Z,16.78
2022-09-15T03:19:41.330Z,16.74
2022-09-15T03:22:14.741Z,16.73
2022-09-15T03:24:48.550Z,16.79
2022-09-15T03:28:12.626Z,16.80
2022-09-15T03:30:19.438Z,16.80
2022-09-15T03:32:52.904Z,16.92
2022-09-15T03:35:26.167Z,16.98
2022-09-15T03:37:59.424Z,17.00
2022-09-15T03:40:34.280Z,16.92
2022-09-15T03:43:07.527Z,17.03
2022-09-15T03:45:41.965Z,17.13
2022-09-15T03:48:16.052Z,17.15
2022-09-15T03:50:49.969Z,17.22
2022-09-15T03:53:25.329Z,17.25
2022-09-15T03:56:13.659Z,17.27
2022-09-15T03:58:48.788Z,17.26
2022-09-15T04:01:24.260Z,17.23
2022-09-15T04:04:00.061Z,17.23
2022-09-15T04:06:36.543Z,17.25
2022-09-15T04:09:09.594Z,17.32
2022-09-15T04:11:43.523Z,17.32
2022-09-15T04:14:16.542Z,17.29
2022-09-15T04:16:50.014Z,17.37
2022-09-15T04:19:23.448Z,17.39
2022-09-15T04:21:56.687Z,17.41
2022-09-15T04:24:34.245Z,17.41
2022-09-15T04:27:07.936Z,17.41
2022-09-15T04:29:42.851Z,17.45
2022-09-15T04:32:16.704Z,17.47
2022-09-15T04:34:50.351Z,17.48
2022-09-15T04:37:23.848Z,17.52
2022-09-15T04:39:57.635Z,17.57
2022-09-15T04:42:32.312Z,17.62
2022-09-15T04:45:06.241Z,17.68
2022-09-15T04:47:39.903Z,17.76
2022-09-15T04:50:13.914Z,17.77
2022-09-15T04:52:47.644Z,17.89
2022-09-15T04:55:21.349Z,17.98
2022-09-15T04:57:56.074Z,18.06
2022-09-15T05:00:29.279Z,18.15
2022-09-15T05:03:03.342Z,18.24
2022-09-15T05:05:37.958Z,18.33
2022-09-15T05:08:11.757Z,18.42
2022-09-15T05:10:45.987Z,18.49
2022-09-15T05:13:19.467Z,18.54
2022-09-15T05:15:53.011Z,18.62
2022-09-15T05:18:27.054Z,18.67
2022-09-15T05:21:04.040Z,18.75
2022-09-15T05:23:37.985Z,18.74
2022-09-15T05:26:14.377Z,18.80
2022-09-15T05:28:48.230Z,18.83
2022-09-15T05:31:35.330Z,18.80
2022-09-15T05:34:09.677Z,18.91
2022-09-15T05:36:44.913Z,19.07
2022-09-15T05:39:18.401Z,19.19
2022-09-15T05:41:51.944Z,19.24
2022-09-15T05:44:27.281Z,19.40
2022-09-15T05:47:01.078Z,19.55
2022-09-15T05:49:34.700Z,19.65
2022-09-15T05:52:08.438Z,19.82
2022-09-15T05:54:42.225Z,20.06
2022-09-15T05:57:15.666Z,20.08
2022-09-15T05:59:49.569Z,20.25
2022-09-15T06:02:27.282Z,20.45
2022-09-15T06:05:00.336Z,20.73
2022-09-15T06:07:35.143Z,21.13
2022-09-15T06:10:09.945Z,21.39
2022-09-15T06:12:43.901Z,21.51
2022-09-15T06:15:18.627Z,21.65
2022-09-15T06:17:54.342Z,21.72
2022-09-15T06:20:29.435Z,21.72
2022-09-15T06:23:07.297Z,21.69
2022-09-15T06:25:40.598Z,21.63
2022-09-15T06:28:13.904Z,21.72
2022-09-15T06:30:50.111Z,21.73
2022-09-15T06:33:23.365Z,21.69
2022-09-15T06:35:56.906Z,21.82
2022-09-15T06:38:30.661Z,21.85
2022-09-15T06:41:04.000Z,21.92
2022-09-15T06:43:39.333Z,22.00
2022-09-15T06:46:15.723Z,22.12
2022-09-15T06:48:50.082Z,22.21
2022-09-15T06:51:26.312Z,22.27
2022-09-15T06:54:00.241Z,22.33
2022-09-15T06:56:43.612Z,22.23
2022-09-15T06:59:19.416Z,22.25
2022-09-15T07:02:04.940Z,22.27
2022-09-15T07:04:46.135Z,22.30
2022-09-15T07:07:20.876Z,22.30
2022-09-15T07:09:54.649Z,22.29
2022-09-15T07:12:28.765Z,22.35
2022-09-15T07:15:02.736Z,22.36
2022-09-15T07:17:38.107Z,22.34
2022-09-15T07:20:11.888Z,22.31
2022-09-15T07:22:46.000Z,22.26
2022-09-15T07:25:19.476Z,22.20
2022-09-15T07:27:53.206Z,22.20
2022-09-15T07:30:30.555Z,22.23
2022-09-15T07:33:07.880Z,22.30
2022-09-15T07:35:46.143Z,22.38
2022-09-15T07:38:23.165Z,22.50
2022-09-15T07:40:57.384Z,22.62
2022-09-15T07:43:34.208Z,22.85
2022-09-15T07:46:08.429Z,23.08
2022-09-15T07:48:42.079Z,23.23
2022-09-15T07:51:16.170Z,23.28
2022-09-15T07:53:51.062Z,23.27
2022-09-15T07:56:26.021Z,23.37
2022-09-15T07:59:00.297Z,23.62
2022-09-15T08:01:34.117Z,23.91
2022-09-15T08:04:07.541Z,24.10
2022-09-15T08:06:40.621Z,24.34
2022-09-15T08:09:18.278Z,24.51
2022-09-15T08:11:51.602Z,24.56
2022-09-15T08:14:25.064Z,24.58
2022-09-15T08:17:10.739Z,24.64
2022-09-15T08:19:46.791Z,24.78
2022-09-15T08:22:20.335Z,24.93
2022-09-15T08:24:53.268Z,25.01
2022-09-15T08:27:26.649Z,25.06
2022-09-15T08:30:00.399Z,25.08
2022-09-15T08:32:34.212Z,25.08
2022-09-15T08:35:09.454Z,25.00
2022-09-15T08:37:43.117Z,25.01
2022-09-15T08:40:30.916Z,24.98
2022-09-15T08:43:11.200Z,24.89
2022-09-15T08:45:59.193Z,24.83
2022-09-15T08:48:48.675Z,24.85
2022-09-15T08:51:33.052Z,24.90
2022-09-15T08:54:12.572Z,24.93
2022-09-15T08:56:47.124Z,24.88
2022-09-15T08:59:22.023Z,24.95
2022-09-15T09:02:17.397Z,24.99
2022-09-15T09:05:09.793Z,25.10
2022-09-15T09:08:01.794Z,25.23
2022-09-15T09:10:54.617Z,25.30
2022-09-15T09:14:01.890Z,25.41
2022-09-15T09:16:52.150Z,25.60
2022-09-15T09:19:40.220Z,25.84
2022-09-15T09:22:19.878Z,26.11
2022-09-15T09:24:58.682Z,26.37
2022-09-15T09:27:36.337Z,26.57
2022-09-15T09:30:21.544Z,26.75
2022-09-15T09:33:21.338Z,26.82
2022-09-15T09:35:55.187Z,26.98
2022-09-15T09:38:40.572Z,27.10
2022-09-15T09:41:37.968Z,27.21
2022-09-15T09:44:16.982Z,27.30
2022-09-15T09:46:50.845Z,27.45
2022-09-15T09:49:28.069Z,27.58
2022-09-15T09:52:04.159Z,27.70
2022-09-15T09:54:38.276Z,27.77
2022-09-15T09:57:17.294Z,27.80
2022-09-15T09:59:52.438Z,27.78
2022-09-15T10:02:30.045Z,27.71
2022-09-15T10:05:08.434Z,27.56
2022-09-15T10:07:47.466Z,27.41
2022-09-15T10:10:25.831Z,27.21
2022-09-15T10:12:59.975Z,27.02
2022-09-15T10:15:42.666Z,26.83
2022-09-15T10:18:40.711Z,26.68
2022-09-15T10:21:17.162Z,26.60
2022-09-15T10:23:50.749Z,26.60
2022-09-15T10:26:36.299Z,26.66
2022-09-15T10:29:18.044Z,26.82
2022-09-15T10:31:51.425Z,27.08
2022-09-15T10:34:32.921Z,27.29
2022-09-15T10:37:16.449Z,27.44
2022-09-15T10:40:00.626Z,27.49
2022-09-15T10:42:54.541Z,27.43
2022-09-15T10:45:41.358Z,27.48
2022-09-15T10:48:44.405Z,27.44
2022-09-15T10:51:28.660Z,27.41
2022-09-15T10:54:44.504Z,27.29
2022-09-15T10:57:54.845Z,27.28
2022-09-15T11:00:40.532Z,27.33
2022-09-15T11:03:41.988Z,27.40
2022-09-15T11:06:31.632Z,27.45
2022-09-15T11:09:20.786Z,27.50
2022-09-15T11:12:35.187Z,27.61
2022-09-15T11:15:24.812Z,27.85
2022-09-15T11:18:30.743Z,28.06
2022-09-15T11:21:09.286Z,28.14
2022-09-15T11:24:17.268Z,28.16
2022-09-15T11:27:00.343Z,28.22
2022-09-15T11:29:59.944Z,28.32
2022-09-15T11:32:40.924Z,28.36
2022-09-15T11:35:42.693Z,28.39
2022-09-15T11:38:38.845Z,28.44
2022-09-15T11:41:31.516Z,28.44
2022-09-15T11:44:33.095Z,28.48
2022-09-15T11:47:30.441Z,28.50
2022-09-15T11:50:14.831Z,28.52
2022-09-15T11:53:01.488Z,28.49
2022-09-15T11:55:42.502Z,28.54
2022-09-15T11:58:52.470Z,28.52
2022-09-15T12:01:32.245Z,28.48
2022-09-15T12:04:15.187Z,28.45
2022-09-15T12:07:21.840Z,28.46
2022-09-15T12:09:55.454Z,28.44
2022-09-15T12:12:30.785Z,28.34
2022-09-15T12:15:04.637Z,28.27
2022-09-15T12:18:06.721Z,28.19
2022-09-15T12:21:14.580Z,28.10
2022-09-15T12:24:12.178Z,28.10
2022-09-15T12:26:47.197Z,28.13
2022-09-15T12:29:29.409Z,28.19
2022-09-15T12:32:25.172Z,28.23
2022-09-15T12:35:13.393Z,28.32
2022-09-15T12:38:05.207Z,28.40
2022-09-15T12:40:40.901Z,28.46
2022-09-15T12:43:23.494Z,28.34
2022-09-15T12:46:00.858Z,28.32
2022-09-15T12:48:38.451Z,28.24
2022-09-15T12:51:13.745Z,28.28
2022-09-15T12:54:09.938Z,28.26
2022-09-15T12:56:52.228Z,28.25
2022-09-15T12:59:28.560Z,28.26
2022-09-15T13:02:03.009Z,28.30
2022-09-15T13:04:44.560Z,28.33
2022-09-15T13:07:21.542Z,28.24
2022-09-15T13:10:16.408Z,28.20
2022-09-15T13:12:56.494Z,28.22
2022-09-15T13:15:30.697Z,28.23
2022-09-15T13:18:08.042Z,28.22
2022-09-15T13:20:45.703Z,28.19
2022-09-15T13:23:24.395Z,28.14
2022-09-15T13:26:01.895Z,28.12
2022-09-15T13:28:35.900Z,28.06
2022-09-15T13:31:13.329Z,28.01
2022-09-15T13:40:35.605Z,27.75
2022-09-15T13:43:40.807Z,27.78
2022-09-15T13:46:41.130Z,27.80
2022-09-15T13:49:37.216Z,27.85
2022-09-15T13:52:26.392Z,27.82
2022-09-15T13:55:22.019Z,27.80
2022-09-15T14:01:04.389Z,27.98
2022-09-15T14:03:46.230Z,27.97
2022-09-15T14:06:37.826Z,27.89
2022-09-15T14:09:17.807Z,27.75
2022-09-15T14:11:58.293Z,27.58
2022-09-15T14:14:34.600Z,27.45
2022-09-15T14:17:07.948Z,27.30
2022-09-15T14:19:44.293Z,27.20
2022-09-15T14:22:36.617Z,27.14
2022-09-15T14:25:09.675Z,27.10
2022-09-15T14:27:50.334Z,27.02
2022-09-15T14:30:28.936Z,26.94
2022-09-15T14:33:04.633Z,26.85
2022-09-15T14:35:41.278Z,26.74
2022-09-15T14:38:26.150Z,26.59
2022-09-15T14:41:02.266Z,26.48
2022-09-15T14:43:43.402Z,26.35
2022-09-15T14:46:21.503Z,26.21
2022-09-15T14:48:54.582Z,26.08
2022-09-15T14:51:33.999Z,25.92
2022-09-15T14:54:15.702Z,25.77
2022-09-15T14:56:51.222Z,25.63
2022-09-15T14:59:33.307Z,25.50
2022-09-15T15:02:27.671Z,25.34
2022-09-15T15:05:13.540Z,25.17
2022-09-15T15:07:47.849Z,24.95
2022-09-15T15:10:35.661Z,25.00
2022-09-15T15:13:20.389Z,24.94
2022-09-15T15:15:53.755Z,24.97
2022-09-15T15:18:57.526Z,24.95
2022-09-15T15:21:43.604Z,24.94
2022-09-15T15:24:17.099Z,24.91
2022-09-15T15:26:52.383Z,24.87
2022-09-15T15:29:48.539Z,24.81
2022-09-15T15:32:25.747Z,24.75
2022-09-15T15:35:03.653Z,24.66
2022-09-15T15:37:37.628Z,24.65
2022-09-15T15:40:20.954Z,24.54
2022-09-15T15:43:00.125Z,24.55
2022-09-15T15:45:35.717Z,24.51
2022-09-15T15:48:13.145Z,24.41
2022-09-15T15:50:49.868Z,24.37
2022-09-15T15:53:22.717Z,24.30
2022-09-15T15:55:56.249Z,24.25
2022-09-15T15:58:28.931Z,24.25
2022-09-15T16:01:02.108Z,24.19
2022-09-15T16:03:35.673Z,24.16
2022-09-15T16:06:08.897Z,24.12
2022-09-15T16:08:45.177Z,24.09
2022-09-15T16:11:20.355Z,24.00
2022-09-15T16:13:53.917Z,23.97
2022-09-15T16:16:29.809Z,23.92
2022-09-15T16:19:03.069Z,23.81
2022-09-15T16:21:40.847Z,23.79
2022-09-15T16:24:17.789Z,23.75
2022-09-15T16:26:53.786Z,23.71
2022-09-15T16:29:32.071Z,23.71
2022-09-15T16:32:06.465Z,23.66
2022-09-15T16:34:39.359Z,23.62
2022-09-15T16:37:12.163Z,23.64
2022-09-15T16:39:48.107Z,23.54
2022-09-15T16:45:24.533Z,23.49
2022-09-15T16:47:57.907Z,23.40
2022-09-15T16:50:34.101Z,23.39
2022-09-15T16:53:09.861Z,23.33
2022-09-15T16:55:51.683Z,23.26
2022-09-15T16:58:24.043Z,23.17
2022-09-15T17:00:58.488Z,23.15
2022-09-15T17:03:35.933Z,23.14
2022-09-15T17:06:14.436Z,23.12
2022-09-15T17:08:51.103Z,23.11
2022-09-15T17:11:28.397Z,23.12
2022-09-15T17:14:02.012Z,23.09
2022-09-15T17:16:35.848Z,23.15
2022-09-15T17:19:10.152Z,23.06
2022-09-15T17:21:44.867Z,23.10
2022-09-15T17:24:18.223Z,23.12
2022-09-15T17:26:51.707Z,23.11
2022-09-15T17:29:26.234Z,23.05
2022-09-15T17:32:07.280Z,23.15
2022-09-15T17:34:56.198Z,23.15
2022-09-15T17:37:30.353Z,23.11
2022-09-15T17:40:08.438Z,23.11
2022-09-15T17:42:42.794Z,23.14
2022-09-15T17:45:44.185Z,23.05
2022-09-15T17:48:19.616Z,23.11
2022-09-15T17:50:54.004Z,23.10
2022-09-15T17:53:29.093Z,23.07
2022-09-15T17:56:03.335Z,23.04
2022-09-15T17:58:36.021Z,23.01
2022-09-15T18:01:09.916Z,22.97
2022-09-15T18:03:49.267Z,22.89
2022-09-15T18:06:27.139Z,22.81
2022-09-15T18:09:01.280Z,22.84
2022-09-15T18:11:36.311Z,22.83
2022-09-15T18:14:11.542Z,22.79
2022-09-15T18:16:45.920Z,22.78
2022-09-15T18:19:21.585Z,22.76
2022-09-15T18:21:56.517Z,22.75
2022-09-15T18:24:29.845Z,22.68
2022-09-15T18:27:03.596Z,22.65
2022-09-15T18:29:37.201Z,22.68
2022-09-15T18:32:11.209Z,22.65
2022-09-15T18:34:44.461Z,22.62
2022-09-15T18:37:25.190Z,22.59
2022-09-15T18:40:01.313Z,22.56
2022-09-15T18:42:42.400Z,22.53
2022-09-15T18:45:21.527Z,22.50
2022-09-15T18:47:56.573Z,22.42
2022-09-15T18:50:56.622Z,22.40
2022-09-15T18:53:30.788Z,22.33
2022-09-15T18:56:11.250Z,22.26
2022-09-15T18:58:44.826Z,22.19
2022-09-15T19:01:18.678Z,22.03
2022-09-15T19:03:53.800Z,22.00
2022-09-15T19:06:27.213Z,21.99
2022-09-15T19:09:01.637Z,21.97
2022-09-15T19:11:35.611Z,21.96
2022-09-15T19:14:08.595Z,21.95
2022-09-15T19:16:57.218Z,21.89
2022-09-15T19:19:34.184Z,21.87
2022-09-15T19:22:11.831Z,21.88
2022-09-15T19:24:45.179Z,21.85
2022-09-15T19:27:21.909Z,21.81
2022-09-15T19:29:57.334Z,21.77
2022-09-15T19:32:33.156Z,21.72
2022-09-15T19:35:06.743Z,21.63
2022-09-15T19:37:42.552Z,21.64
2022-09-15T19:40:17.823Z,21.54
2022-09-15T19:42:56.875Z,21.54
2022-09-15T19:45:31.304Z,21.47
2022-09-15T19:48:09.198Z,21.40
2022-09-15T19:50:43.282Z,21.34
2022-09-15T19:53:16.914Z,21.23
2022-09-15T19:55:59.414Z,21.18
2022-09-15T19:58:33.814Z,21.18
2022-09-15T20:01:08.414Z,21.14
2022-09-15T20:03:47.509Z,21.09
2022-09-15T20:06:32.534Z,21.00
2022-09-15T20:09:10.707Z,21.01
2022-09-15T20:11:48.932Z,20.96
2022-09-15T20:14:26.238Z,20.91
2022-09-15T20:17:02.556Z,20.85
2022-09-15T20:19:37.668Z,20.75
2022-09-15T20:22:10.656Z,20.73
2022-09-15T20:24:44.290Z,20.67
2022-09-15T20:27:19.513Z,20.55
2022-09-15T20:29:54.434Z,20.54
2022-09-15T20:32:29.962Z,20.47
2022-09-15T20:35:03.704Z,20.40
2022-09-15T20:37:37.768Z,20.36
2022-09-15T20:40:12.108Z,20.31
2022-09-15T20:42:51.020Z,20.31
2022-09-15T20:45:24.963Z,20.26
2022-09-15T20:48:01.212Z,20.20
2022-09-15T20:50:35.521Z,20.08
2022-09-15T20:53:09.211Z,19.96
2022-09-15T20:55:42.786Z,19.95
2022-09-15T20:58:16.253Z,19.95
2022-09-15T21:00:50.033Z,19.86
2022-09-15T21:03:29.130Z,19.84
2022-09-15T21:06:12.147Z,19.80
2022-09-15T21:08:50.699Z,19.75
2022-09-15T21:11:25.752Z,19.71
2022-09-15T21:14:03.413Z,19.67
2022-09-15T21:16:40.284Z,19.63
2022-09-15T21:19:16.281Z,19.54
2022-09-15T21:21:50.166Z,19.55
2022-09-15T21:24:24.500Z,19.43
2022-09-15T21:27:16.125Z,19.49
2022-09-15T21:29:49.463Z,19.47
2022-09-15T21:32:22.356Z,19.45
2022-09-15T21:34:56.416Z,19.41
2022-09-15T21:37:29.758Z,19.41
2022-09-15T21:40:03.699Z,19.43
2022-09-15T21:42:39.805Z,19.33
2022-09-15T21:45:13.069Z,19.43
2022-09-15T21:47:46.328Z,19.42
2022-09-15T21:50:19.631Z,19.40
2022-09-15T21:52:52.212Z,19.36
2022-09-15T21:55:25.630Z,19.24
2022-09-15T21:57:58.836Z,19.23
2022-09-15T22:00:35.064Z,19.18
2022-09-15T22:03:09.580Z,19.06
2022-09-15T22:05:47.686Z,19.03
2022-09-15T22:08:20.651Z,19.05
2022-09-15T22:11:00.306Z,19.12
2022-09-15T22:13:41.070Z,19.17
2022-09-15T22:16:20.848Z,19.21
2022-09-15T22:18:54.572Z,19.22
2022-09-15T22:21:32.955Z,19.19
2022-09-15T22:24:07.510Z,19.21
2022-09-15T22:26:42.101Z,19.17
2022-09-15T22:29:15.742Z,19.22
2022-09-15T22:31:49.327Z,19.26
2022-09-15T22:34:22.452Z,19.30
2022-09-15T22:36:55.019Z,19.33
2022-09-15T22:39:50.292Z,19.37
2022-09-15T22:42:22.258Z,19.42
2022-09-15T22:44:55.467Z,19.41
2022-09-15T22:47:29.702Z,19.42
2022-09-15T22:50:04.826Z,19.48
2022-09-15T22:52:43.709Z,19.50
2022-09-15T22:55:20.829Z,19.51
2022-09-15T22:57:56.762Z,19.51
2022-09-15T23:00:30.023Z,19.47
2022-09-15T23:03:03.809Z,19.48
2022-09-15T23:05:38.517Z,19.38
2022-09-15T23:08:12.782Z,19.35
2022-09-15T23:10:47.324Z,19.38
2022-09-15T23:13:21.430Z,19.36
2022-09-15T23:15:55.102Z,19.36
2022-09-15T23:18:29.626Z,19.38
2022-09-15T23:21:10.990Z,19.40
2022-09-15T23:23:47.213Z,19.35
2022-09-15T23:26:22.736Z,19.32
2022-09-15T23:28:55.857Z,19.43
2022-09-15T23:31:28.625Z,19.45
2022-09-15T23:34:02.687Z,19.49
2022-09-15T23:36:35.981Z,19.52
2022-09-15T23:39:08.852Z,19.57
2022-09-15T23:41:42.651Z,19.60
2022-09-15T23:44:16.073Z,19.56
2022-09-15T23:49:42.933Z,19.65
2022-09-15T23:52:19.239Z,19.69
2022-09-15T23:54:55.004Z,19.73
2022-09-15T23:57:29.147Z,19.78
